createdAt,value
2018-12-08T00:00:43.068Z,20.1
2018-12-08T00:01:33.705Z,20.2
2018-12-08T00:02:23.429Z,20.2
2018-12-08T00:03:13.206Z,20.1
2018-12-08T00:04:03.492Z,20.1
2018-12-08T00:04:53.846Z,20.1
2018-12-08T00:05:43.643Z,20.1
2018-12-08T00:06:34.258Z,20.1
2018-12-08T00:24:46.164Z,20.1
2018-12-08T00:25:36.217Z,20.1
2018-12-08T00:26:26.855Z,20.1
2018-12-08T00:27:16.310Z,20.1
2018-12-08T00:28:06.161Z,20.1
2018-12-08T00:28:55.884Z,20.1
2018-12-08T00:29:46.771Z,20.1
2018-12-08T00:30:36.650Z,20.1
2018-12-08T00:31:27.138Z,20.1
2018-12-08T00:32:16.766Z,20.1
2018-12-08T00:33:06.154Z,20.1
2018-12-08T00:33:57.171Z,20.1
2018-12-08T00:34:47.133Z,20.1
2018-12-08T00:35:36.613Z,20.1
2018-12-08T00:36:26.670Z,20.1
2018-12-08T00:37:17.089Z,20.1
2018-12-08T00:38:06.508Z,20.1
2018-12-08T00:38:57.141Z,20.1
2018-12-08T00:39:47.422Z,20.1
2018-12-08T00:40:37.766Z,20.1
2018-12-08T00:41:27.821Z,20.1
2018-12-08T00:42:16.789Z,20.1
2018-12-08T00:43:07.168Z,20.1
2018-12-08T00:43:57.733Z,20.1
2018-12-08T00:44:46.691Z,20.1
2018-12-08T00:45:37.346Z,20.1
2018-12-08T00:46:27.754Z,20.1
2018-12-08T00:47:17.509Z,20.1
2018-12-08T00:48:07.190Z,20.1
2018-12-08T00:48:58.093Z,20.1
2018-12-08T00:49:46.818Z,20.1
2018-12-08T00:50:37.932Z,20.1
2018-12-08T00:51:27.983Z,20.1
2018-12-08T00:52:17.467Z,20.1
2018-12-08T00:53:07.374Z,20.1
2018-12-08T00:53:57.877Z,20.1
2018-12-08T00:54:47.970Z,20.1
2018-12-08T00:55:38.362Z,20.1
2018-12-08T00:56:28.363Z,20.1
2018-12-08T00:57:18.087Z,20.1
2018-12-08T00:58:08.819Z,20.1
2018-12-08T00:58:58.211Z,20.1
2018-12-08T00:59:48.620Z,20.1
2018-12-08T01:00:38.841Z,20.1
2018-12-08T01:01:28.662Z,20.1
2018-12-08T01:02:19.404Z,20.1
2018-12-08T01:03:08.812Z,20.1
2018-12-08T01:03:58.302Z,20.1
2018-12-08T01:04:49.185Z,20.1
2018-12-08T01:05:38.659Z,20.1
2018-12-08T01:06:28.450Z,20.1
2018-12-08T01:07:18.814Z,20.1
2018-12-08T01:08:08.597Z,20.1
2018-12-08T01:08:58.617Z,20.1
2018-12-08T01:09:49.497Z,20.1
2018-12-08T01:10:40.111Z,20.1
2018-12-08T01:11:29.354Z,20.1
2018-12-08T01:12:19.372Z,20.1
2018-12-08T01:13:09.732Z,20.1
2018-12-08T01:13:58.981Z,20.1
2018-12-08T01:14:49.831Z,20.1
2018-12-08T01:15:39.900Z,20.1
2018-12-08T01:16:29.441Z,20.1
2018-12-08T01:17:19.874Z,20.1
2018-12-08T01:18:09.546Z,20.1
2018-12-08T01:19:00.113Z,20.1
2018-12-08T01:19:50.446Z,20.1
2018-12-08T01:20:40.223Z,20.1
2018-12-08T01:21:30.354Z,20.1
2018-12-08T01:22:20.471Z,20.1
2018-12-08T01:23:10.441Z,20.1
2018-12-08T01:23:59.738Z,20.1
2018-12-08T01:24:49.531Z,20.1
2018-12-08T01:25:40.464Z,20.1
2018-12-08T01:26:30.933Z,20.1
2018-12-08T01:27:20.158Z,20.1
2018-12-08T01:28:10.280Z,20.1
2018-12-08T01:29:00.282Z,20.1
2018-12-08T01:29:50.055Z,20.1
2018-12-08T01:30:40.763Z,20.1
2018-12-08T01:31:29.752Z,20.1
2018-12-08T01:32:20.243Z,20.1
2018-12-08T01:33:11.638Z,20.1
2018-12-08T01:34:00.625Z,20.1
2018-12-08T01:34:50.512Z,20.1
2018-12-08T01:35:41.010Z,20.1
2018-12-08T01:36:30.848Z,20.1
2018-12-08T01:37:20.084Z,20.1
2018-12-08T01:38:10.704Z,20.1
2018-12-08T01:39:01.491Z,20.1
2018-12-08T01:39:50.999Z,20.1
2018-12-08T01:40:41.053Z,20.1
2018-12-08T01:41:31.157Z,20.1
2018-12-08T01:42:21.289Z,20.1
2018-12-08T01:43:11.241Z,20.1
2018-12-08T01:44:01.853Z,20.1
2018-12-08T01:44:51.905Z,20.1
2018-12-08T01:45:41.425Z,20.1
2018-12-08T01:46:31.730Z,20.1
2018-12-08T01:47:21.248Z,20.2
2018-12-08T01:48:10.840Z,20.1
2018-12-08T01:49:01.727Z,20.1
2018-12-08T01:49:51.743Z,20.1
2018-12-08T01:50:41.747Z,20.1
2018-12-08T01:51:31.862Z,20.1
2018-12-08T01:52:21.858Z,20.1
2018-12-08T01:53:11.922Z,20.1
2018-12-08T01:54:02.245Z,20.1
2018-12-08T01:54:52.684Z,20.1
2018-12-08T01:55:41.324Z,20.1
2018-12-08T01:56:31.402Z,20.1
2018-12-08T01:57:22.477Z,20.1
2018-12-08T01:58:12.552Z,20.1
2018-12-08T01:59:02.049Z,20.1
2018-12-08T01:59:52.627Z,20.1
2018-12-08T02:00:42.708Z,20.1
2018-12-08T02:01:32.344Z,20.1
2018-12-08T02:02:23.099Z,20.1
2018-12-08T02:03:13.157Z,20.1
2018-12-08T02:04:02.501Z,20.1
2018-12-08T02:04:53.006Z,20.1
2018-12-08T02:05:42.238Z,20.1
2018-12-08T02:06:33.681Z,20.1
2018-12-08T02:07:22.879Z,20.1
2018-12-08T02:08:12.206Z,20.1
2018-12-08T02:09:02.553Z,20.2
2018-12-08T02:09:53.244Z,20.1
2018-12-08T02:10:42.904Z,20.1
2018-12-08T02:11:33.191Z,20.1
2018-12-08T02:12:23.478Z,20.1
2018-12-08T02:13:13.298Z,20.1
2018-12-08T02:14:03.398Z,20.2
2018-12-08T02:14:53.210Z,20.1
2018-12-08T02:15:42.438Z,20.1
2018-12-08T02:16:33.318Z,20.1
2018-12-08T02:17:23.625Z,20.1
2018-12-08T02:18:12.605Z,20.2
2018-12-08T02:19:03.505Z,20.1
2018-12-08T02:19:52.271Z,20.1
2018-12-08T02:20:43.882Z,20.1
2018-12-08T02:21:33.107Z,20.2
2018-12-08T02:22:23.550Z,20.2
2018-12-08T02:23:13.492Z,20.1
2018-12-08T02:24:03.334Z,20.1
2018-12-08T02:24:54.014Z,20.2
2018-12-08T02:25:44.235Z,20.2
2018-12-08T02:26:33.527Z,20.2
2018-12-08T02:27:23.499Z,20.2
2018-12-08T02:28:14.131Z,20.2
2018-12-08T02:29:03.415Z,20.2
2018-12-08T02:29:53.964Z,20.2
2018-12-08T02:30:44.302Z,20.2
2018-12-08T02:31:34.382Z,20.2
2018-12-08T02:32:24.499Z,20.2
2018-12-08T02:33:17.798Z,20.2
2018-12-08T02:34:04.832Z,20.2
2018-12-08T02:34:54.376Z,20.2
2018-12-08T02:35:44.395Z,20.2
2018-12-08T02:36:34.872Z,20.2
2018-12-08T02:37:24.799Z,20.2
2018-12-08T02:38:14.351Z,20.2
2018-12-08T02:39:04.937Z,20.1
2018-12-08T02:39:54.953Z,20.2
2018-12-08T02:40:45.745Z,20.2
2018-12-08T02:41:35.070Z,20.2
2018-12-08T02:42:25.118Z,20.2
2018-12-08T02:43:15.708Z,20.2
2018-12-08T02:44:06.021Z,20.2
2018-12-08T02:44:55.235Z,20.2
2018-12-08T02:45:45.809Z,20.2
2018-12-08T02:46:34.645Z,20.2
2018-12-08T02:47:25.680Z,20.2
2018-12-08T02:48:15.442Z,20.2
2018-12-08T02:49:06.177Z,20.2
2018-12-08T02:49:55.525Z,20.2
2018-12-08T02:50:46.159Z,20.2
2018-12-08T02:51:36.458Z,20.2
2018-12-08T02:52:26.289Z,20.2
2018-12-08T02:53:16.120Z,20.2
2018-12-08T02:54:06.351Z,20.2
2018-12-08T02:54:56.234Z,20.2
2018-12-08T02:55:46.234Z,20.2
2018-12-08T02:56:36.756Z,20.2
2018-12-08T02:57:26.351Z,20.2
2018-12-08T02:58:16.411Z,20.2
2018-12-08T02:59:05.747Z,20.2
2018-12-08T02:59:56.903Z,20.2
2018-12-08T03:00:46.268Z,20.2
2018-12-08T03:01:36.645Z,20.2
2018-12-08T03:02:26.392Z,20.2
2018-12-08T03:03:16.711Z,20.2
2018-12-08T03:04:07.608Z,20.2
2018-12-08T03:04:57.176Z,20.2
2018-12-08T03:05:46.735Z,20.2
2018-12-08T03:06:36.495Z,20.2
2018-12-08T03:07:26.273Z,20.2
2018-12-08T03:08:16.367Z,20.2
2018-12-08T03:09:07.850Z,20.2
2018-12-08T03:09:56.940Z,20.2
2018-12-08T03:10:46.992Z,20.2
2018-12-08T03:11:37.590Z,20.2
2018-12-08T03:12:26.948Z,20.2
2018-12-08T03:13:18.305Z,20.2
2018-12-08T03:14:07.259Z,20.2
2018-12-08T03:14:57.565Z,20.2
2018-12-08T03:15:46.861Z,20.2
2018-12-08T03:16:37.472Z,20.2
2018-12-08T03:17:28.246Z,20.2
2018-12-08T03:18:18.039Z,20.2
2018-12-08T03:19:08.312Z,20.2
2018-12-08T03:19:58.696Z,20.2
2018-12-08T03:20:47.649Z,20.2
2018-12-08T03:21:38.281Z,20.2
2018-12-08T03:22:28.580Z,20.2
2018-12-08T03:23:18.803Z,20.2
2018-12-08T03:24:08.434Z,20.2
2018-12-08T03:24:58.211Z,20.2
2018-12-08T03:25:48.851Z,20.2
2018-12-08T03:26:39.136Z,20.2
2018-12-08T03:27:29.222Z,20.2
2018-12-08T03:28:19.008Z,20.2
2018-12-08T03:29:08.538Z,20.2
2018-12-08T03:29:58.561Z,20.2
2018-12-08T03:30:50.917Z,20.2
2018-12-08T03:31:39.061Z,20.2
2018-12-08T03:32:28.952Z,20.2
2018-12-08T03:33:18.936Z,20.3
2018-12-08T03:34:09.539Z,20.2
2018-12-08T03:34:58.622Z,20.2
2018-12-08T03:35:48.988Z,20.2
2018-12-08T03:36:39.006Z,20.2
2018-12-08T03:37:28.812Z,20.2
2018-12-08T03:38:19.165Z,20.2
2018-12-08T03:39:09.764Z,20.2
2018-12-08T03:39:59.535Z,20.2
2018-12-08T03:40:50.187Z,20.2
2018-12-08T03:41:39.108Z,20.2
2018-12-08T03:42:28.878Z,20.2
2018-12-08T03:43:18.662Z,20.2
2018-12-08T03:44:09.914Z,20.2
2018-12-08T03:44:59.703Z,20.3
2018-12-08T03:45:49.927Z,20.2
2018-12-08T03:46:39.449Z,20.3
2018-12-08T03:47:29.235Z,20.2
2018-12-08T03:48:19.560Z,20.3
2018-12-08T03:49:10.216Z,20.2
2018-12-08T03:49:59.694Z,20.3
2018-12-08T03:50:50.429Z,20.3
2018-12-08T03:51:40.598Z,20.2
2018-12-08T03:52:30.479Z,20.3
2018-12-08T03:53:20.479Z,20.2
2018-12-08T03:54:10.590Z,20.2
2018-12-08T03:55:00.075Z,20.3
2018-12-08T03:55:50.162Z,20.3
2018-12-08T03:56:39.693Z,20.3
2018-12-08T03:57:30.670Z,20.3
2018-12-08T03:58:20.039Z,20.2
2018-12-08T03:59:11.164Z,20.3
2018-12-08T04:00:00.956Z,20.2
2018-12-08T04:00:50.265Z,20.3
2018-12-08T04:01:41.301Z,20.3
2018-12-08T04:02:31.083Z,20.3
2018-12-08T04:03:20.291Z,20.3
2018-12-08T04:04:11.204Z,20.3
2018-12-08T04:05:00.728Z,20.3
2018-12-08T04:05:51.101Z,20.3
2018-12-08T04:06:40.808Z,20.3
2018-12-08T04:07:31.435Z,20.3
2018-12-08T04:08:21.206Z,20.3
2018-12-08T04:09:11.799Z,20.3
2018-12-08T04:10:01.091Z,20.3
2018-12-08T04:10:51.889Z,20.3
2018-12-08T04:11:41.730Z,20.3
2018-12-08T04:12:31.208Z,20.3
2018-12-08T04:13:21.290Z,20.3
2018-12-08T04:14:11.362Z,20.3
2018-12-08T04:15:01.397Z,20.2
2018-12-08T04:15:51.694Z,20.3
2018-12-08T04:16:42.290Z,20.3
2018-12-08T04:17:32.382Z,20.3
2018-12-08T04:18:22.438Z,20.3
2018-12-08T04:19:11.625Z,20.3
2018-12-08T04:20:02.405Z,20.3
2018-12-08T04:20:52.326Z,20.3
2018-12-08T04:21:42.102Z,20.2
2018-12-08T04:22:32.744Z,20.3
2018-12-08T04:23:22.623Z,20.3
2018-12-08T04:24:12.850Z,20.3
2018-12-08T04:25:02.364Z,20.3
2018-12-08T04:25:53.113Z,20.3
2018-12-08T04:26:42.196Z,20.3
2018-12-08T04:27:31.948Z,20.3
2018-12-08T04:28:22.669Z,20.3
2018-12-08T04:29:12.910Z,20.3
2018-12-08T04:30:02.952Z,20.3
2018-12-08T04:30:53.699Z,20.3
2018-12-08T04:31:43.309Z,20.3
2018-12-08T04:32:32.619Z,20.3
2018-12-08T04:33:22.926Z,20.3
2018-12-08T04:34:13.006Z,20.3
2018-12-08T04:35:02.786Z,20.3
2018-12-08T04:35:54.602Z,20.3
2018-12-08T04:36:42.830Z,20.3
2018-12-08T04:54:02.242Z,20.3
2018-12-08T04:54:52.362Z,20.3
2018-12-08T04:55:41.574Z,20.3
2018-12-08T04:56:31.909Z,20.3
2018-12-08T04:57:21.664Z,20.3
2018-12-08T04:58:11.992Z,20.3
2018-12-08T04:59:02.054Z,20.3
2018-12-08T04:59:52.135Z,20.3
2018-12-08T05:00:42.179Z,20.3
2018-12-08T05:01:32.261Z,20.3
2018-12-08T05:02:22.669Z,20.3
2018-12-08T05:03:11.507Z,20.3
2018-12-08T05:04:02.029Z,20.3
2018-12-08T05:04:52.485Z,20.3
2018-12-08T05:05:42.484Z,20.3
2018-12-08T05:06:32.281Z,20.3
2018-12-08T05:07:23.137Z,20.3
2018-12-08T05:08:12.649Z,20.3
2018-12-08T05:09:02.420Z,20.3
2018-12-08T05:09:53.048Z,20.3
2018-12-08T05:10:42.558Z,20.3
2018-12-08T05:11:32.716Z,20.3
2018-12-08T05:12:23.198Z,20.3
2018-12-08T05:13:12.709Z,20.3
2018-12-08T05:14:02.778Z,20.3
2018-12-08T05:14:53.413Z,20.3
2018-12-08T05:15:42.976Z,20.3
2018-12-08T05:16:33.513Z,20.3
2018-12-08T05:17:22.443Z,20.3
2018-12-08T05:18:13.065Z,20.3
2018-12-08T05:19:03.410Z,20.3
2018-12-08T05:19:53.465Z,20.3
2018-12-08T05:20:43.813Z,20.3
2018-12-08T05:21:33.561Z,20.3
2018-12-08T05:22:23.911Z,20.3
2018-12-08T05:23:13.504Z,20.3
2018-12-08T05:24:03.451Z,20.3
2018-12-08T05:24:53.362Z,20.3
2018-12-08T05:25:44.085Z,20.3
2018-12-08T05:26:34.316Z,20.3
2018-12-08T05:27:23.721Z,20.3
2018-12-08T05:28:13.755Z,20.3
2018-12-08T05:29:03.821Z,20.3
2018-12-08T05:29:53.947Z,20.3
2018-12-08T05:30:44.487Z,20.3
2018-12-08T05:31:34.538Z,20.3
2018-12-08T05:32:24.048Z,20.3
2018-12-08T05:33:14.085Z,20.3
2018-12-08T05:34:04.162Z,20.3
2018-12-08T05:34:54.262Z,20.3
2018-12-08T05:35:43.715Z,20.3
2018-12-08T05:36:35.215Z,20.3
2018-12-08T05:37:24.662Z,20.3
2018-12-08T05:38:14.680Z,20.3
2018-12-08T05:39:05.038Z,20.3
2018-12-08T05:39:54.932Z,20.3
2018-12-08T05:40:45.196Z,20.3
2018-12-08T05:41:34.645Z,20.3
2018-12-08T05:42:25.075Z,20.3
2018-12-08T05:43:14.533Z,20.3
2018-12-08T05:44:05.385Z,20.3
2018-12-08T05:44:55.157Z,20.3
2018-12-08T05:45:44.932Z,20.3
2018-12-08T05:46:35.603Z,20.3
2018-12-08T05:47:25.327Z,20.3
2018-12-08T05:48:15.119Z,20.3
2018-12-08T05:49:05.264Z,20.3
2018-12-08T05:49:55.235Z,20.3
2018-12-08T05:50:45.282Z,20.3
2018-12-08T05:51:35.772Z,20.3
2018-12-08T05:52:25.715Z,20.3
2018-12-08T05:53:15.980Z,20.3
2018-12-08T05:54:05.519Z,20.3
2018-12-08T05:54:55.577Z,20.3
2018-12-08T05:55:45.892Z,20.3
2018-12-08T05:56:35.674Z,20.3
2018-12-08T05:57:26.105Z,20.3
2018-12-08T05:58:16.037Z,20.3
2018-12-08T05:59:05.316Z,20.3
2018-12-08T05:59:55.899Z,20.3
2018-12-08T06:00:45.679Z,20.3
2018-12-08T06:01:36.881Z,20.3
2018-12-08T06:02:26.359Z,20.3
2018-12-08T06:03:16.666Z,20.3
2018-12-08T06:04:06.215Z,20.3
2018-12-08T06:04:56.266Z,20.3
2018-12-08T06:05:46.026Z,20.3
2018-12-08T06:06:36.364Z,20.3
2018-12-08T06:07:26.412Z,20.3
2018-12-08T06:08:16.214Z,20.3
2018-12-08T06:09:06.543Z,20.3
2018-12-08T06:09:56.852Z,20.3
2018-12-08T06:10:46.643Z,20.3
2018-12-08T06:11:37.370Z,20.2
2018-12-08T06:12:26.767Z,20.2
2018-12-08T06:13:17.086Z,20.1
2018-12-08T06:14:07.416Z,20.1
2018-12-08T06:14:57.510Z,20
2018-12-08T06:15:46.988Z,20
2018-12-08T06:16:37.075Z,20
2018-12-08T06:17:27.106Z,19.9
2018-12-08T06:18:17.703Z,19.9
2018-12-08T06:19:06.667Z,19.9
2018-12-08T06:19:56.818Z,19.9
2018-12-08T06:20:47.332Z,19.9
2018-12-08T06:21:37.660Z,19.9
2018-12-08T06:22:27.765Z,19.9
2018-12-08T06:23:18.045Z,19.9
2018-12-08T06:24:07.041Z,19.9
2018-12-08T06:24:57.897Z,19.9
2018-12-08T06:25:47.928Z,19.9
2018-12-08T06:26:37.731Z,19.9
2018-12-08T06:27:28.585Z,19.9
2018-12-08T06:28:17.842Z,19.9
2018-12-08T06:29:07.620Z,19.9
2018-12-08T06:29:58.204Z,19.9
2018-12-08T06:30:48.299Z,19.9
2018-12-08T06:31:37.870Z,19.9
2018-12-08T06:32:28.644Z,19.9
2018-12-08T06:33:18.176Z,19.9
2018-12-08T06:34:08.222Z,19.9
2018-12-08T06:34:58.517Z,20
2018-12-08T06:35:48.617Z,19.9
2018-12-08T06:36:39.046Z,19.9
2018-12-08T06:37:28.187Z,19.9
2018-12-08T06:38:18.566Z,19.9
2018-12-08T06:39:09.144Z,19.9
2018-12-08T06:39:59.681Z,19.8
2018-12-08T06:40:48.946Z,19.8
2018-12-08T06:41:37.639Z,19.8
2018-12-08T06:42:29.039Z,19.8
2018-12-08T06:43:19.175Z,19.8
2018-12-08T06:44:09.472Z,19.8
2018-12-08T06:44:59.519Z,19.8
2018-12-08T06:45:49.342Z,19.8
2018-12-08T06:46:39.409Z,19.8
2018-12-08T06:47:29.139Z,19.7
2018-12-08T06:48:19.471Z,19.7
2018-12-08T06:49:09.246Z,19.7
2018-12-08T06:49:59.578Z,19.7
2018-12-08T06:50:49.167Z,19.7
2018-12-08T06:51:39.983Z,19.7
2018-12-08T06:52:29.199Z,19.6
2018-12-08T06:53:19.922Z,19.6
2018-12-08T06:54:09.593Z,19.6
2018-12-08T06:55:00.451Z,19.6
2018-12-08T06:55:49.158Z,19.6
2018-12-08T06:56:39.483Z,19.6
2018-12-08T06:57:29.891Z,19.6
2018-12-08T06:58:19.672Z,19.6
2018-12-08T06:59:09.741Z,19.6
2018-12-08T06:59:59.773Z,19.6
2018-12-08T07:00:49.556Z,19.6
2018-12-08T07:01:40.183Z,19.6
2018-12-08T07:02:29.672Z,19.6
2018-12-08T07:03:20.473Z,19.6
2018-12-08T07:04:10.080Z,19.5
2018-12-08T07:05:00.566Z,19.5
2018-12-08T07:05:50.430Z,19.5
2018-12-08T07:06:40.550Z,19.5
2018-12-08T07:07:30.491Z,19.5
2018-12-08T07:08:21.218Z,19.5
2018-12-08T07:09:11.139Z,19.5
2018-12-08T07:10:00.667Z,19.4
2018-12-08T07:10:51.618Z,19.4
2018-12-08T07:11:40.765Z,19.5
2018-12-08T07:12:33.345Z,19.4
2018-12-08T07:13:20.583Z,19.4
2018-12-08T07:14:11.479Z,19.4
2018-12-08T07:15:01.280Z,19.4
2018-12-08T07:15:51.935Z,19.4
2018-12-08T07:16:41.120Z,19.4
2018-12-08T07:17:30.694Z,19.4
2018-12-08T07:18:21.762Z,19.4
2018-12-08T07:19:11.057Z,19.4
2018-12-08T07:20:01.476Z,19.4
2018-12-08T07:20:51.087Z,19.4
2018-12-08T07:21:41.754Z,19.4
2018-12-08T07:22:31.521Z,19.4
2018-12-08T07:23:22.409Z,19.4
2018-12-08T07:24:11.331Z,19.4
2018-12-08T07:25:01.676Z,19.4
2018-12-08T07:25:52.367Z,19.4
2018-12-08T07:26:41.524Z,19.4
2018-12-08T07:27:31.577Z,19.4
2018-12-08T07:28:24.727Z,19.4
2018-12-08T07:29:12.498Z,19.4
2018-12-08T07:30:02.117Z,19.4
2018-12-08T07:30:52.596Z,19.4
2018-12-08T07:31:42.738Z,19.4
2018-12-08T07:32:40.236Z,19.3
2018-12-08T07:33:22.253Z,19.3
2018-12-08T07:34:12.044Z,19.3
2018-12-08T07:35:02.106Z,19.3
2018-12-08T07:35:52.141Z,19.3
2018-12-08T07:36:42.801Z,19.3
2018-12-08T07:37:32.568Z,19.3
2018-12-08T07:38:23.400Z,19.3
2018-12-08T07:39:12.323Z,19.3
2018-12-08T07:40:02.731Z,19.3
2018-12-08T07:40:53.051Z,19.3
2018-12-08T07:41:43.362Z,19.3
2018-12-08T07:42:32.323Z,19.3
2018-12-08T07:43:22.686Z,19.3
2018-12-08T07:44:13.538Z,19.3
2018-12-08T07:45:03.045Z,19.3
2018-12-08T07:45:53.397Z,19.3
2018-12-08T07:46:43.428Z,19.3
2018-12-08T07:47:33.580Z,19.3
2018-12-08T07:48:22.987Z,19.3
2018-12-08T07:49:13.603Z,19.3
2018-12-08T07:50:02.910Z,19.3
2018-12-08T07:50:53.232Z,19.3
2018-12-08T07:51:43.007Z,19.3
2018-12-08T07:52:32.829Z,19.3
2018-12-08T07:53:23.417Z,19.3
2018-12-08T07:54:13.210Z,19.3
2018-12-08T07:55:03.537Z,19.3
2018-12-08T07:55:53.297Z,19.3
2018-12-08T07:56:43.819Z,19.3
2018-12-08T07:57:33.344Z,19.3
2018-12-08T07:58:23.422Z,19.3
2018-12-08T07:59:13.732Z,19.3
2018-12-08T08:00:06.062Z,19.3
2018-12-08T08:00:54.499Z,19.3
2018-12-08T08:01:45.019Z,19.3
2018-12-08T08:02:34.634Z,19.3
2018-12-08T08:03:23.466Z,19.3
2018-12-08T08:04:13.771Z,19.2
2018-12-08T08:05:04.444Z,19.2
2018-12-08T08:05:55.099Z,19.2
2018-12-08T08:06:45.076Z,19.2
2018-12-08T08:07:34.846Z,19.2
2018-12-08T08:08:24.632Z,19.2
2018-12-08T08:09:15.016Z,19.2
2018-12-08T08:10:04.089Z,19.2
2018-12-08T08:10:55.401Z,19.2
2018-12-08T08:11:45.140Z,19.2
2018-12-08T08:12:35.471Z,19.2
2018-12-08T08:13:24.981Z,19.2
2018-12-08T08:14:15.635Z,19.2
2018-12-08T08:15:05.755Z,19.1
2018-12-08T08:15:54.955Z,19.2
2018-12-08T08:16:45.771Z,19.2
2018-12-08T08:17:35.533Z,19.2
2018-12-08T08:18:25.583Z,19.1
2018-12-08T08:19:15.915Z,19.1
2018-12-08T08:20:05.445Z,19.1
2018-12-08T08:20:55.875Z,19.1
2018-12-08T08:21:45.825Z,19.1
2018-12-08T08:22:36.444Z,19.1
2018-12-08T08:23:26.243Z,19.1
2018-12-08T08:24:15.714Z,19.1
2018-12-08T08:25:06.320Z,19.1
2018-12-08T08:25:55.637Z,19.1
2018-12-08T08:26:45.990Z,19.1
2018-12-08T08:27:36.122Z,19.1
2018-12-08T08:28:26.050Z,19.1
2018-12-08T08:29:16.612Z,19.1
2018-12-08T08:30:06.384Z,19.1
2018-12-08T08:30:56.152Z,19.1
2018-12-08T08:31:48.237Z,19.1
2018-12-08T08:32:36.002Z,19.1
2018-12-08T08:33:26.594Z,19.1
2018-12-08T08:34:16.146Z,19.1
2018-12-08T08:35:06.454Z,19.1
2018-12-08T08:35:56.783Z,19.1
2018-12-08T08:36:46.557Z,19.1
2018-12-08T08:37:36.969Z,19.1
2018-12-08T08:38:26.966Z,19.1
2018-12-08T08:39:16.252Z,19.1
2018-12-08T08:40:07.182Z,19.1
2018-12-08T08:40:56.846Z,19.1
2018-12-08T08:41:46.899Z,19.1
2018-12-08T08:42:36.668Z,19.1
2018-12-08T08:43:26.998Z,19.1
2018-12-08T08:44:17.623Z,19.1
2018-12-08T08:45:06.585Z,19.1
2018-12-08T08:45:57.542Z,19.1
2018-12-08T08:46:47.278Z,19.1
2018-12-08T08:47:37.306Z,19.1
2018-12-08T08:48:27.903Z,19.1
2018-12-08T08:49:17.409Z,19.1
2018-12-08T08:50:09.688Z,19.1
2018-12-08T08:50:57.795Z,19.1
2018-12-08T08:51:47.611Z,19.1
2018-12-08T08:52:37.638Z,19.1
2018-12-08T09:08:24.902Z,19
2018-12-08T09:09:14.990Z,19.1
2018-12-08T09:10:04.622Z,19.1
2018-12-08T09:10:54.527Z,19.1
2018-12-08T09:11:45.150Z,19.1
2018-12-08T09:12:34.362Z,19
2018-12-08T09:13:25.501Z,19
2018-12-08T09:14:18.674Z,19.1
2018-12-08T09:15:04.549Z,19.1
2018-12-08T09:15:54.918Z,19
2018-12-08T09:16:45.592Z,19
2018-12-08T09:17:35.097Z,19
2018-12-08T09:18:26.029Z,19.1
2018-12-08T09:19:15.364Z,19
2018-12-08T09:20:05.189Z,19
2018-12-08T09:20:55.217Z,19
2018-12-08T09:21:45.271Z,19.1
2018-12-08T09:22:34.829Z,19
2018-12-08T09:23:25.742Z,19
2018-12-08T09:24:15.723Z,19
2018-12-08T09:25:05.501Z,19
2018-12-08T09:25:56.368Z,19
2018-12-08T09:26:45.611Z,19
2018-12-08T09:27:35.651Z,19
2018-12-08T09:28:26.550Z,19
2018-12-08T09:29:16.061Z,19
2018-12-08T09:30:05.933Z,19
2018-12-08T09:30:54.933Z,19
2018-12-08T09:31:45.836Z,19
2018-12-08T09:32:35.803Z,19
2018-12-08T09:33:26.226Z,19
2018-12-08T09:34:15.938Z,19
2018-12-08T09:35:06.258Z,19
2018-12-08T09:35:56.513Z,19
2018-12-08T09:36:46.560Z,19
2018-12-08T09:37:35.870Z,19
2018-12-08T09:38:26.670Z,19
2018-12-08T09:39:16.710Z,19
2018-12-08T09:40:06.260Z,19
2018-12-08T09:40:56.856Z,19
2018-12-08T09:41:46.900Z,19
2018-12-08T09:42:36.495Z,19
2018-12-08T09:43:27.023Z,19
2018-12-08T09:44:16.548Z,19
2018-12-08T09:45:06.877Z,19
2018-12-08T09:45:57.465Z,19
2018-12-08T09:46:46.973Z,19
2018-12-08T09:47:37.338Z,19
2018-12-08T09:48:27.093Z,19
2018-12-08T09:49:17.498Z,19
2018-12-08T09:50:07.825Z,19
2018-12-08T09:50:57.538Z,19
2018-12-08T09:51:46.508Z,19
2018-12-08T09:52:36.936Z,19
2018-12-08T09:53:27.710Z,19
2018-12-08T09:54:18.035Z,19
2018-12-08T09:55:07.837Z,18.9
2018-12-08T09:55:58.231Z,18.9
2018-12-08T09:56:47.650Z,18.9
2018-12-08T09:57:37.710Z,19
2018-12-08T09:58:27.657Z,19
2018-12-08T09:59:18.642Z,18.9
2018-12-08T10:00:08.179Z,18.9
2018-12-08T10:00:58.577Z,19
2018-12-08T10:01:48.560Z,19
2018-12-08T10:02:38.127Z,18.9
2018-12-08T10:03:27.629Z,19
2018-12-08T10:04:17.454Z,19
2018-12-08T10:05:07.641Z,18.9
2018-12-08T10:05:58.451Z,18.9
2018-12-08T10:06:47.965Z,18.9
2018-12-08T10:07:38.967Z,18.9
2018-12-08T10:08:28.727Z,18.9
2018-12-08T10:09:19.062Z,18.9
2018-12-08T10:10:08.537Z,18.9
2018-12-08T10:10:58.613Z,18.9
2018-12-08T10:11:48.674Z,18.9
2018-12-08T10:12:38.751Z,18.9
2018-12-08T10:13:28.621Z,18.9
2018-12-08T10:14:19.252Z,18.9
2018-12-08T10:15:08.909Z,18.9
2018-12-08T10:15:59.301Z,18.9
2018-12-08T10:16:49.561Z,18.9
2018-12-08T10:17:39.617Z,18.9
2018-12-08T10:18:29.419Z,18.9
2018-12-08T10:19:19.219Z,18.9
2018-12-08T10:20:09.259Z,19
2018-12-08T10:20:59.669Z,18.9
2018-12-08T10:21:49.601Z,18.9
2018-12-08T10:22:39.704Z,18.9
2018-12-08T10:23:29.530Z,18.9
2018-12-08T10:24:19.791Z,18.9
2018-12-08T10:25:09.818Z,18.9
2018-12-08T10:25:59.913Z,18.9
2018-12-08T10:26:50.071Z,18.9
2018-12-08T10:27:39.749Z,18.9
2018-12-08T10:28:30.371Z,18.9
2018-12-08T10:29:19.869Z,18.9
2018-12-08T10:30:09.887Z,18.9
2018-12-08T10:30:59.409Z,18.9
2018-12-08T10:31:50.308Z,18.9
2018-12-08T10:32:40.363Z,18.9
2018-12-08T10:33:32.076Z,18.9
2018-12-08T10:34:20.843Z,18.9
2018-12-08T10:35:10.799Z,18.9
2018-12-08T10:36:00.863Z,18.9
2018-12-08T10:36:50.648Z,18.9
2018-12-08T10:37:40.983Z,18.9
2018-12-08T10:38:30.756Z,18.9
2018-12-08T10:39:20.821Z,18.9
2018-12-08T10:40:10.700Z,18.9
2018-12-08T10:41:01.203Z,18.9
2018-12-08T10:41:51.285Z,18.9
2018-12-08T10:42:40.770Z,18.9
2018-12-08T10:43:30.535Z,18.9
2018-12-08T10:44:20.604Z,18.9
2018-12-08T10:45:10.940Z,18.9
2018-12-08T10:46:00.995Z,18.9
2018-12-08T10:46:51.407Z,18.9
2018-12-08T10:47:41.405Z,18.9
2018-12-08T10:48:31.289Z,18.9
2018-12-08T10:49:21.527Z,18.8
2018-12-08T10:50:11.935Z,18.8
2018-12-08T10:51:01.874Z,18.9
2018-12-08T10:51:51.667Z,18.8
2018-12-08T10:52:41.762Z,18.8
2018-12-08T10:53:32.051Z,18.8
2018-12-08T10:54:21.247Z,18.8
2018-12-08T10:55:11.944Z,18.8
2018-12-08T10:56:01.734Z,18.8
2018-12-08T10:56:51.459Z,18.8
2018-12-08T10:57:42.349Z,18.8
2018-12-08T10:58:32.391Z,18.8
2018-12-08T10:59:22.446Z,18.8
2018-12-08T11:00:12.241Z,18.8
2018-12-08T11:01:03.058Z,18.8
2018-12-08T11:01:52.453Z,18.8
2018-12-08T11:02:42.681Z,18.8
2018-12-08T11:03:32.441Z,18.8
2018-12-08T11:04:23.036Z,18.8
2018-12-08T11:05:12.071Z,18.8
2018-12-08T11:06:02.861Z,18.8
2018-12-08T11:06:52.428Z,18.8
2018-12-08T11:07:42.741Z,18.8
2018-12-08T11:22:43.511Z,18.6
2018-12-08T11:23:33.004Z,18.6
2018-12-08T11:24:23.427Z,18.6
2018-12-08T11:25:12.904Z,18.6
2018-12-08T11:26:04.284Z,18.6
2018-12-08T11:26:54.339Z,18.6
2018-12-08T11:27:43.817Z,18.6
2018-12-08T11:28:34.424Z,18.6
2018-12-08T11:29:24.026Z,18.6
2018-12-08T11:30:14.273Z,18.6
2018-12-08T11:31:03.266Z,18.5
2018-12-08T11:31:54.446Z,18.5
2018-12-08T11:32:44.162Z,18.5
2018-12-08T11:33:34.836Z,18.5
2018-12-08T11:34:24.810Z,18.5
2018-12-08T11:35:14.318Z,18.4
2018-12-08T11:36:04.019Z,18.5
2018-12-08T11:36:55.263Z,18.4
2018-12-08T11:37:45.058Z,18.4
2018-12-08T11:38:34.936Z,18.4
2018-12-08T11:39:25.207Z,18.4
2018-12-08T11:40:15.273Z,18.4
2018-12-08T11:41:04.746Z,18.4
2018-12-08T11:41:54.873Z,18.4
2018-12-08T11:42:45.156Z,18.4
2018-12-08T11:43:35.192Z,18.4
2018-12-08T11:44:25.426Z,18.4
2018-12-08T11:45:15.578Z,18.4
2018-12-08T11:46:05.068Z,18.4
2018-12-08T11:46:55.145Z,18.4
2018-12-08T11:47:45.191Z,18.4
2018-12-08T11:48:34.697Z,18.4
2018-12-08T11:49:25.359Z,18.4
2018-12-08T11:50:15.413Z,18.4
2018-12-08T11:51:05.431Z,18.4
2018-12-08T11:51:55.547Z,18.4
2018-12-08T11:52:45.612Z,18.4
2018-12-08T11:53:35.338Z,18.4
2018-12-08T11:54:25.791Z,18.4
2018-12-08T11:55:16.252Z,18.4
2018-12-08T11:56:05.816Z,18.4
2018-12-08T11:56:56.165Z,18.4
2018-12-08T11:57:46.534Z,18.4
2018-12-08T11:58:35.932Z,18.4
2018-12-08T11:59:26.594Z,18.3
2018-12-08T12:00:16.062Z,18.4
2018-12-08T12:01:06.672Z,18.4
2018-12-08T12:01:56.168Z,18.4
2018-12-08T12:02:46.773Z,18.4
2018-12-08T12:03:36.031Z,18.4
2018-12-08T12:04:26.611Z,18.4
2018-12-08T12:05:16.389Z,18.4
2018-12-08T12:06:06.718Z,18.4
2018-12-08T12:06:56.494Z,18.4
2018-12-08T12:07:46.594Z,18.4
2018-12-08T12:08:36.880Z,18.3
2018-12-08T12:09:27.319Z,18.4
2018-12-08T12:10:17.246Z,18.3
2018-12-08T12:11:07.065Z,18.3
2018-12-08T12:11:56.844Z,18.3
2018-12-08T12:12:46.983Z,18.4